Lake Ridge, Virginia
Current Conditions -  °F | °C
As of 10:58 PM on Wednesday 17 Dec 2014 (Local Time) from KDAA Reporting Station
Clear Clear  
Wind Chill: 31°   Ceiling: Unl
Heat Index: 39°   Visibility: 10mi
Dew Point: 24°   Wind: 14mph
Humidity: 54%   Direction: 320°NW
Pressure: 30.07"   Gusts: NA
Location:  38.6839°N, 77.3246°W
Report Text: KDAA 180358Z AUTO 32012KT 10SM CLR 04/M05 A3007 RMK AO2 SLP186 T00411046
Loading
Personal Weather Stations






























Interactive Weather Map New forecast layout! Learn more

10-Day Weather Forecast

Advertisements
Track Severe Weather on mobile